sensor_id;sensor_type;location;lat;lon;timestamp;temperature;humidity
21108;DHT22;10712;52.944;9.098;2023-05-07T00:01:59;10.80;85.10
21108;DHT22;10712;52.944;9.098;2023-05-07T00:04:25;10.80;85.10
21108;DHT22;10712;52.944;9.098;2023-05-07T00:06:51;10.80;85.30
21108;DHT22;10712;52.944;9.098;2023-05-07T00:09:16;10.70;85.40
21108;DHT22;10712;52.944;9.098;2023-05-07T00:11:42;10.70;85.40
21108;DHT22;10712;52.944;9.098;2023-05-07T00:14:08;10.70;85.40
21108;DHT22;10712;52.944;9.098;2023-05-07T00:16:34;10.70;85.40
21108;DHT22;10712;52.944;9.098;2023-05-07T00:19:00;10.70;85.30
21108;DHT22;10712;52.944;9.098;2023-05-07T00:21:25;10.70;85.20
21108;DHT22;10712;52.944;9.098;2023-05-07T00:23:53;10.70;85.30
21108;DHT22;10712;52.944;9.098;2023-05-07T00:26:20;10.60;85.30
21108;DHT22;10712;52.944;9.098;2023-05-07T00:28:49;10.60;85.20
21108;DHT22;10712;52.944;9.098;2023-05-07T00:31:15;10.50;85.40
21108;DHT22;10712;52.944;9.098;2023-05-07T00:33:40;10.50;85.50
21108;DHT22;10712;52.944;9.098;2023-05-07T00:36:06;10.50;85.70
21108;DHT22;10712;52.944;9.098;2023-05-07T00:38:32;10.50;85.70
21108;DHT22;10712;52.944;9.098;2023-05-07T00:40:58;10.50;85.60
21108;DHT22;10712;52.944;9.098;2023-05-07T00:43:24;10.50;85.60
21108;DHT22;10712;52.944;9.098;2023-05-07T00:45:50;10.40;85.80
21108;DHT22;10712;52.944;9.098;2023-05-07T00:48:17;10.40;85.80
21108;DHT22;10712;52.944;9.098;2023-05-07T00:50:43;10.40;85.80
21108;DHT22;10712;52.944;9.098;2023-05-07T00:53:10;10.40;86.00
21108;DHT22;10712;52.944;9.098;2023-05-07T00:55:36;10.30;86.10
21108;DHT22;10712;52.944;9.098;2023-05-07T00:58:02;10.30;86.20
21108;DHT22;10712;52.944;9.098;2023-05-07T01:00:28;10.30;86.30
21108;DHT22;10712;52.944;9.098;2023-05-07T01:02:55;10.30;86.20
21108;DHT22;10712;52.944;9.098;2023-05-07T01:05:23;10.30;86.20
21108;DHT22;10712;52.944;9.098;2023-05-07T01:07:52;10.30;86.20
21108;DHT22;10712;52.944;9.098;2023-05-07T01:10:20;10.20;86.30
21108;DHT22;10712;52.944;9.098;2023-05-07T01:12:48;10.30;86.40
21108;DHT22;10712;52.944;9.098;2023-05-07T01:15:15;10.30;86.50
21108;DHT22;10712;52.944;9.098;2023-05-07T01:17:42;10.30;86.60
21108;DHT22;10712;52.944;9.098;2023-05-07T01:20:17;10.30;86.60
21108;DHT22;10712;52.944;9.098;2023-05-07T01:22:45;10.30;86.30
21108;DHT22;10712;52.944;9.098;2023-05-07T01:25:12;10.30;86.20
21108;DHT22;10712;52.944;9.098;2023-05-07T01:27:43;10.30;86.30
21108;DHT22;10712;52.944;9.098;2023-05-07T01:30:10;10.30;86.20
21108;DHT22;10712;52.944;9.098;2023-05-07T01:32:39;10.30;86.10
21108;DHT22;10712;52.944;9.098;2023-05-07T01:35:11;10.30;85.90
21108;DHT22;10712;52.944;9.098;2023-05-07T01:37:40;10.30;85.70
21108;DHT22;10712;52.944;9.098;2023-05-07T01:40:08;10.20;85.70
21108;DHT22;10712;52.944;9.098;2023-05-07T01:42:35;10.20;85.70
21108;DHT22;10712;52.944;9.098;2023-05-07T01:45:01;10.20;85.80
21108;DHT22;10712;52.944;9.098;2023-05-07T01:47:29;10.20;86.00
21108;DHT22;10712;52.944;9.098;2023-05-07T01:49:56;10.20;86.00
21108;DHT22;10712;52.944;9.098;2023-05-07T01:52:22;10.20;85.90
21108;DHT22;10712;52.944;9.098;2023-05-07T01:54:49;10.10;85.60
21108;DHT22;10712;52.944;9.098;2023-05-07T01:57:16;10.10;86.00
21108;DHT22;10712;52.944;9.098;2023-05-07T01:59:41;10.10;85.80
21108;DHT22;10712;52.944;9.098;2023-05-07T02:02:07;10.10;85.90
21108;DHT22;10712;52.944;9.098;2023-05-07T02:04:35;10.00;86.00
21108;DHT22;10712;52.944;9.098;2023-05-07T02:07:02;10.00;86.20
21108;DHT22;10712;52.944;9.098;2023-05-07T02:09:28;10.00;86.20
21108;DHT22;10712;52.944;9.098;2023-05-07T02:11:54;10.00;86.30
21108;DHT22;10712;52.944;9.098;2023-05-07T02:14:21;10.00;86.50
21108;DHT22;10712;52.944;9.098;2023-05-07T02:16:47;10.00;86.20
21108;DHT22;10712;52.944;9.098;2023-05-07T02:19:14;10.00;86.30
21108;DHT22;10712;52.944;9.098;2023-05-07T02:21:40;10.00;86.30
21108;DHT22;10712;52.944;9.098;2023-05-07T02:24:06;10.00;86.20
21108;DHT22;10712;52.944;9.098;2023-05-07T02:26:32;10.00;86.20
21108;DHT22;10712;52.944;9.098;2023-05-07T02:28:58;10.00;86.20
21108;DHT22;10712;52.944;9.098;2023-05-07T02:31:23;10.00;86.20
21108;DHT22;10712;52.944;9.098;2023-05-07T02:33:49;10.00;86.10
21108;DHT22;10712;52.944;9.098;2023-05-07T02:36:16;9.90;86.10
21108;DHT22;10712;52.944;9.098;2023-05-07T02:38:48;9.90;86.30
21108;DHT22;10712;52.944;9.098;2023-05-07T02:41:14;9.90;85.90
21108;DHT22;10712;52.944;9.098;2023-05-07T02:43:40;9.90;86.10
21108;DHT22;10712;52.944;9.098;2023-05-07T02:46:08;9.90;86.20
21108;DHT22;10712;52.944;9.098;2023-05-07T02:48:38;9.90;86.20
21108;DHT22;10712;52.944;9.098;2023-05-07T02:51:04;9.90;86.30
21108;DHT22;10712;52.944;9.098;2023-05-07T02:53:31;9.90;86.50
21108;DHT22;10712;52.944;9.098;2023-05-07T02:56:00;9.90;86.20
21108;DHT22;10712;52.944;9.098;2023-05-07T02:58:26;9.90;86.20
21108;DHT22;10712;52.944;9.098;2023-05-07T03:00:53;9.90;86.30
21108;DHT22;10712;52.944;9.098;2023-05-07T03:03:52;9.90;86.50
21108;DHT22;10712;52.944;9.098;2023-05-07T03:06:18;9.90;86.60
21108;DHT22;10712;52.944;9.098;2023-05-07T03:08:43;9.90;86.50
21108;DHT22;10712;52.944;9.098;2023-05-07T03:11:09;9.90;86.40
21108;DHT22;10712;52.944;9.098;2023-05-07T03:13:35;9.90;86.50
21108;DHT22;10712;52.944;9.098;2023-05-07T03:16:01;9.90;86.40
21108;DHT22;10712;52.944;9.098;2023-05-07T03:18:27;9.90;86.50
21108;DHT22;10712;52.944;9.098;2023-05-07T03:20:53;9.90;86.40
21108;DHT22;10712;52.944;9.098;2023-05-07T03:23:19;9.90;86.30
21108;DHT22;10712;52.944;9.098;2023-05-07T03:25:45;9.90;86.40
21108;DHT22;10712;52.944;9.098;2023-05-07T03:28:11;9.90;86.50
21108;DHT22;10712;52.944;9.098;2023-05-07T03:30:43;9.90;86.30
21108;DHT22;10712;52.944;9.098;2023-05-07T03:33:09;9.90;86.20
21108;DHT22;10712;52.944;9.098;2023-05-07T03:35:35;9.90;86.20
21108;DHT22;10712;52.944;9.098;2023-05-07T03:38:01;9.90;86.40
21108;DHT22;10712;52.944;9.098;2023-05-07T03:40:30;9.80;86.60
21108;DHT22;10712;52.944;9.098;2023-05-07T03:42:56;9.90;86.70
21108;DHT22;10712;52.944;9.098;2023-05-07T03:45:25;9.90;86.80
21108;DHT22;10712;52.944;9.098;2023-05-07T03:48:01;9.90;86.90
21108;DHT22;10712;52.944;9.098;2023-05-07T03:50:26;9.90;86.90
21108;DHT22;10712;52.944;9.098;2023-05-07T03:52:52;9.90;86.90
21108;DHT22;10712;52.944;9.098;2023-05-07T03:55:21;9.90;86.90
21108;DHT22;10712;52.944;9.098;2023-05-07T03:57:55;9.90;86.90
21108;DHT22;10712;52.944;9.098;2023-05-07T04:00:23;9.90;87.10
21108;DHT22;10712;52.944;9.098;2023-05-07T04:02:49;9.90;87.10
21108;DHT22;10712;52.944;9.098;2023-05-07T04:05:21;9.90;87.10
21108;DHT22;10712;52.944;9.098;2023-05-07T04:07:50;9.80;87.10
21108;DHT22;10712;52.944;9.098;2023-05-07T04:10:20;9.80;87.10
21108;DHT22;10712;52.944;9.098;2023-05-07T04:12:48;9.80;87.30
21108;DHT22;10712;52.944;9.098;2023-05-07T04:15:19;9.80;87.30
21108;DHT22;10712;52.944;9.098;2023-05-07T04:17:45;9.80;87.20
21108;DHT22;10712;52.944;9.098;2023-05-07T04:20:16;9.80;87.20
21108;DHT22;10712;52.944;9.098;2023-05-07T04:22:46;9.80;87.20
21108;DHT22;10712;52.944;9.098;2023-05-07T04:25:12;9.80;87.30
21108;DHT22;10712;52.944;9.098;2023-05-07T04:27:37;9.80;87.30
21108;DHT22;10712;52.944;9.098;2023-05-07T04:30:04;9.80;87.40
21108;DHT22;10712;52.944;9.098;2023-05-07T04:32:37;9.80;87.40
21108;DHT22;10712;52.944;9.098;2023-05-07T04:35:04;9.80;87.50
21108;DHT22;10712;52.944;9.098;2023-05-07T04:37:32;9.80;87.50
21108;DHT22;10712;52.944;9.098;2023-05-07T04:39:58;9.90;87.30
21108;DHT22;10712;52.944;9.098;2023-05-07T04:42:25;9.90;87.20
21108;DHT22;10712;52.944;9.098;2023-05-07T04:44:53;9.90;87.30
21108;DHT22;10712;52.944;9.098;2023-05-07T04:47:20;9.90;87.40
21108;DHT22;10712;52.944;9.098;2023-05-07T04:49:46;9.90;87.30
21108;DHT22;10712;52.944;9.098;2023-05-07T04:52:12;9.90;87.20
21108;DHT22;10712;52.944;9.098;2023-05-07T04:54:38;9.90;87.20
21108;DHT22;10712;52.944;9.098;2023-05-07T04:57:04;9.90;87.30
21108;DHT22;10712;52.944;9.098;2023-05-07T04:59:32;9.90;87.40
21108;DHT22;10712;52.944;9.098;2023-05-07T05:01:58;9.90;87.50
21108;DHT22;10712;52.944;9.098;2023-05-07T05:04:24;9.90;87.30
21108;DHT22;10712;52.944;9.098;2023-05-07T05:06:50;9.90;87.30
21108;DHT22;10712;52.944;9.098;2023-05-07T05:09:17;9.90;87.20
21108;DHT22;10712;52.944;9.098;2023-05-07T05:11:43;9.90;87.30
21108;DHT22;10712;52.944;9.098;2023-05-07T05:14:09;9.90;87.20
21108;DHT22;10712;52.944;9.098;2023-05-07T05:16:35;9.90;86.90
21108;DHT22;10712;52.944;9.098;2023-05-07T05:19:02;9.90;86.50
21108;DHT22;10712;52.944;9.098;2023-05-07T05:21:30;9.90;86.40
21108;DHT22;10712;52.944;9.098;2023-05-07T05:24:02;9.90;86.20
21108;DHT22;10712;52.944;9.098;2023-05-07T05:26:28;9.90;86.20
21108;DHT22;10712;52.944;9.098;2023-05-07T05:28:53;9.90;86.20
21108;DHT22;10712;52.944;9.098;2023-05-07T05:31:22;10.00;86.20
21108;DHT22;10712;52.944;9.098;2023-05-07T05:33:49;10.00;86.20
21108;DHT22;10712;52.944;9.098;2023-05-07T05:36:16;10.00;86.20
21108;DHT22;10712;52.944;9.098;2023-05-07T05:38:43;10.00;86.20
21108;DHT22;10712;52.944;9.098;2023-05-07T05:41:11;10.00;86.00
21108;DHT22;10712;52.944;9.098;2023-05-07T05:43:36;10.00;85.70
21108;DHT22;10712;52.944;9.098;2023-05-07T05:46:02;10.00;85.50
21108;DHT22;10712;52.944;9.098;2023-05-07T05:48:30;10.00;85.20
21108;DHT22;10712;52.944;9.098;2023-05-07T05:50:58;10.00;85.00
21108;DHT22;10712;52.944;9.098;2023-05-07T05:53:23;10.00;85.00
21108;DHT22;10712;52.944;9.098;2023-05-07T05:55:49;10.00;85.00
21108;DHT22;10712;52.944;9.098;2023-05-07T05:58:16;10.00;85.00
21108;DHT22;10712;52.944;9.098;2023-05-07T06:00:49;10.00;85.10
21108;DHT22;10712;52.944;9.098;2023-05-07T06:03:18;10.00;85.20
21108;DHT22;10712;52.944;9.098;2023-05-07T06:05:45;10.00;85.10
21108;DHT22;10712;52.944;9.098;2023-05-07T06:08:11;10.00;84.90
21108;DHT22;10712;52.944;9.098;2023-05-07T06:10:37;10.00;85.00
21108;DHT22;10712;52.944;9.098;2023-05-07T06:13:04;10.00;85.00
21108;DHT22;10712;52.944;9.098;2023-05-07T06:15:32;10.00;85.00
21108;DHT22;10712;52.944;9.098;2023-05-07T06:18:03;10.00;85.00
21108;DHT22;10712;52.944;9.098;2023-05-07T06:20:29;10.00;85.00
21108;DHT22;10712;52.944;9.098;2023-05-07T06:22:56;10.00;85.00
21108;DHT22;10712;52.944;9.098;2023-05-07T06:25:22;10.00;85.00
21108;DHT22;10712;52.944;9.098;2023-05-07T06:27:47;10.10;85.10
21108;DHT22;10712;52.944;9.098;2023-05-07T06:30:13;10.10;85.20
21108;DHT22;10712;52.944;9.098;2023-05-07T06:32:40;10.10;84.50
21108;DHT22;10712;52.944;9.098;2023-05-07T06:35:07;10.10;84.30
21108;DHT22;10712;52.944;9.098;2023-05-07T06:37:37;10.10;83.80
21108;DHT22;10712;52.944;9.098;2023-05-07T06:40:06;10.10;83.90
21108;DHT22;10712;52.944;9.098;2023-05-07T06:42:37;10.10;84.00
21108;DHT22;10712;52.944;9.098;2023-05-07T06:45:22;10.10;84.30
21108;DHT22;10712;52.944;9.098;2023-05-07T06:47:49;10.10;84.30
21108;DHT22;10712;52.944;9.098;2023-05-07T06:50:15;10.10;84.20
21108;DHT22;10712;52.944;9.098;2023-05-07T06:52:43;10.10;84.30
21108;DHT22;10712;52.944;9.098;2023-05-07T06:55:09;10.10;84.10
21108;DHT22;10712;52.944;9.098;2023-05-07T06:57:37;10.10;84.00
21108;DHT22;10712;52.944;9.098;2023-05-07T07:00:04;10.10;84.20
21108;DHT22;10712;52.944;9.098;2023-05-07T07:02:38;10.10;84.30
21108;DHT22;10712;52.944;9.098;2023-05-07T07:05:04;10.10;84.10
21108;DHT22;10712;52.944;9.098;2023-05-07T07:07:31;10.20;84.00
21108;DHT22;10712;52.944;9.098;2023-05-07T07:09:57;10.20;84.00
21108;DHT22;10712;52.944;9.098;2023-05-07T07:12:23;10.20;83.60
21108;DHT22;10712;52.944;9.098;2023-05-07T07:14:50;10.30;83.50
21108;DHT22;10712;52.944;9.098;2023-05-07T07:17:16;10.30;83.40
21108;DHT22;10712;52.944;9.098;2023-05-07T07:19:42;10.30;83.40
21108;DHT22;10712;52.944;9.098;2023-05-07T07:22:08;10.40;83.40
21108;DHT22;10712;52.944;9.098;2023-05-07T07:24:34;10.40;83.30
21108;DHT22;10712;52.944;9.098;2023-05-07T07:27:03;10.40;82.90
21108;DHT22;10712;52.944;9.098;2023-05-07T07:29:30;10.40;82.60
21108;DHT22;10712;52.944;9.098;2023-05-07T07:31:56;10.50;82.30
21108;DHT22;10712;52.944;9.098;2023-05-07T07:34:22;10.50;82.40
21108;DHT22;10712;52.944;9.098;2023-05-07T07:36:49;10.50;82.30
21108;DHT22;10712;52.944;9.098;2023-05-07T07:39:17;10.50;81.80
21108;DHT22;10712;52.944;9.098;2023-05-07T07:41:44;10.50;81.90
21108;DHT22;10712;52.944;9.098;2023-05-07T07:44:11;10.50;82.00
21108;DHT22;10712;52.944;9.098;2023-05-07T07:46:39;10.50;82.10
21108;DHT22;10712;52.944;9.098;2023-05-07T07:49:06;10.60;81.70
21108;DHT22;10712;52.944;9.098;2023-05-07T07:51:32;10.60;82.20
21108;DHT22;10712;52.944;9.098;2023-05-07T07:53:59;10.70;82.00
21108;DHT22;10712;52.944;9.098;2023-05-07T07:56:26;10.70;81.90
21108;DHT22;10712;52.944;9.098;2023-05-07T07:58:52;10.70;81.80
21108;DHT22;10712;52.944;9.098;2023-05-07T08:01:18;10.80;81.90
21108;DHT22;10712;52.944;9.098;2023-05-07T08:03:45;10.80;82.10
21108;DHT22;10712;52.944;9.098;2023-05-07T08:06:12;10.80;82.10
21108;DHT22;10712;52.944;9.098;2023-05-07T08:08:39;10.90;81.70
21108;DHT22;10712;52.944;9.098;2023-05-07T08:11:05;10.90;81.50
21108;DHT22;10712;52.944;9.098;2023-05-07T08:13:33;11.00;81.30
21108;DHT22;10712;52.944;9.098;2023-05-07T08:15:59;11.00;81.40
21108;DHT22;10712;52.944;9.098;2023-05-07T08:18:25;11.00;81.30
21108;DHT22;10712;52.944;9.098;2023-05-07T08:20:54;11.10;81.30
21108;DHT22;10712;52.944;9.098;2023-05-07T08:23:23;11.10;81.70
21108;DHT22;10712;52.944;9.098;2023-05-07T08:25:49;11.10;81.50
21108;DHT22;10712;52.944;9.098;2023-05-07T08:28:16;11.20;81.00
21108;DHT22;10712;52.944;9.098;2023-05-07T08:30:42;11.20;80.90
21108;DHT22;10712;52.944;9.098;2023-05-07T08:33:09;11.30;81.00
21108;DHT22;10712;52.944;9.098;2023-05-07T08:35:35;11.30;81.30
21108;DHT22;10712;52.944;9.098;2023-05-07T08:38:01;11.40;81.30
21108;DHT22;10712;52.944;9.098;2023-05-07T08:40:28;11.40;81.00
21108;DHT22;10712;52.944;9.098;2023-05-07T08:42:57;11.50;81.10
21108;DHT22;10712;52.944;9.098;2023-05-07T08:45:24;11.50;81.30
21108;DHT22;10712;52.944;9.098;2023-05-07T08:47:58;11.60;81.30
21108;DHT22;10712;52.944;9.098;2023-05-07T08:50:31;11.60;80.50
21108;DHT22;10712;52.944;9.098;2023-05-07T08:52:58;11.70;80.50
21108;DHT22;10712;52.944;9.098;2023-05-07T08:55:28;11.70;80.00
21108;DHT22;10712;52.944;9.098;2023-05-07T08:57:55;11.70;80.10
21108;DHT22;10712;52.944;9.098;2023-05-07T09:00:21;11.70;79.70
21108;DHT22;10712;52.944;9.098;2023-05-07T09:02:50;11.70;79.70
21108;DHT22;10712;52.944;9.098;2023-05-07T09:05:16;11.80;79.80
21108;DHT22;10712;52.944;9.098;2023-05-07T09:07:42;11.80;80.00
21108;DHT22;10712;52.944;9.098;2023-05-07T09:10:09;11.90;80.10
21108;DHT22;10712;52.944;9.098;2023-05-07T09:12:38;11.90;79.60
21108;DHT22;10712;52.944;9.098;2023-05-07T09:15:07;11.90;79.30
21108;DHT22;10712;52.944;9.098;2023-05-07T09:17:34;11.90;79.50
21108;DHT22;10712;52.944;9.098;2023-05-07T09:20:04;11.90;79.60
21108;DHT22;10712;52.944;9.098;2023-05-07T09:22:37;11.90;80.00
21108;DHT22;10712;52.944;9.098;2023-05-07T09:25:07;12.00;79.60
21108;DHT22;10712;52.944;9.098;2023-05-07T09:27:35;12.00;79.50
21108;DHT22;10712;52.944;9.098;2023-05-07T09:30:06;12.10;79.60
21108;DHT22;10712;52.944;9.098;2023-05-07T09:32:35;12.10;78.90
21108;DHT22;10712;52.944;9.098;2023-05-07T09:35:04;12.20;78.30
21108;DHT22;10712;52.944;9.098;2023-05-07T09:37:31;12.20;78.50
21108;DHT22;10712;52.944;9.098;2023-05-07T09:39:58;12.20;78.70
21108;DHT22;10712;52.944;9.098;2023-05-07T09:42:25;12.20;79.00
21108;DHT22;10712;52.944;9.098;2023-05-07T09:44:54;12.20;79.00
21108;DHT22;10712;52.944;9.098;2023-05-07T09:47:24;12.20;78.90
21108;DHT22;10712;52.944;9.098;2023-05-07T09:49:56;12.30;79.40
21108;DHT22;10712;52.944;9.098;2023-05-07T09:52:26;12.30;79.60
21108;DHT22;10712;52.944;9.098;2023-05-07T09:54:59;12.30;79.50
21108;DHT22;10712;52.944;9.098;2023-05-07T09:57:29;12.30;79.00
21108;DHT22;10712;52.944;9.098;2023-05-07T10:00:01;12.40;78.50
21108;DHT22;10712;52.944;9.098;2023-05-07T10:02:35;12.40;78.80
21108;DHT22;10712;52.944;9.098;2023-05-07T10:05:03;12.30;78.80
21108;DHT22;10712;52.944;9.098;2023-05-07T10:07:32;12.30;78.50
21108;DHT22;10712;52.944;9.098;2023-05-07T10:10:05;12.30;78.40
21108;DHT22;10712;52.944;9.098;2023-05-07T10:12:36;12.30;77.80
21108;DHT22;10712;52.944;9.098;2023-05-07T10:15:12;12.30;78.30
21108;DHT22;10712;52.944;9.098;2023-05-07T10:17:42;12.30;78.70
21108;DHT22;10712;52.944;9.098;2023-05-07T10:20:09;12.40;78.60
21108;DHT22;10712;52.944;9.098;2023-05-07T10:22:41;12.40;78.20
21108;DHT22;10712;52.944;9.098;2023-05-07T10:25:25;12.50;77.80
21108;DHT22;10712;52.944;9.098;2023-05-07T10:27:57;12.50;77.70
21108;DHT22;10712;52.944;9.098;2023-05-07T10:33:13;12.60;79.00
21108;DHT22;10712;52.944;9.098;2023-05-07T10:35:45;12.70;79.10
21108;DHT22;10712;52.944;9.098;2023-05-07T10:38:13;12.80;78.90
21108;DHT22;10712;52.944;9.098;2023-05-07T10:40:43;12.90;78.40
21108;DHT22;10712;52.944;9.098;2023-05-07T10:43:09;12.90;78.20
21108;DHT22;10712;52.944;9.098;2023-05-07T10:45:43;13.00;78.10
21108;DHT22;10712;52.944;9.098;2023-05-07T10:48:15;13.10;77.50
21108;DHT22;10712;52.944;9.098;2023-05-07T10:50:46;13.10;76.20
21108;DHT22;10712;52.944;9.098;2023-05-07T10:58:49;13.30;75.80
21108;DHT22;10712;52.944;9.098;2023-05-07T11:01:54;13.30;76.60
21108;DHT22;10712;52.944;9.098;2023-05-07T11:04:33;13.50;76.10
21108;DHT22;10712;52.944;9.098;2023-05-07T11:10:01;13.70;75.30
21108;DHT22;10712;52.944;9.098;2023-05-07T11:12:55;13.80;75.50
21108;DHT22;10712;52.944;9.098;2023-05-07T11:15:39;13.90;75.80
21108;DHT22;10712;52.944;9.098;2023-05-07T11:18:17;13.90;75.60
21108;DHT22;10712;52.944;9.098;2023-05-07T11:20:58;14.00;75.20
21108;DHT22;10712;52.944;9.098;2023-05-07T11:26:11;14.00;74.50
21108;DHT22;10712;52.944;9.098;2023-05-07T11:28:39;14.00;74.90
21108;DHT22;10712;52.944;9.098;2023-05-07T11:31:07;14.00;74.70
21108;DHT22;10712;52.944;9.098;2023-05-07T11:33:35;14.10;74.60
21108;DHT22;10712;52.944;9.098;2023-05-07T11:36:04;14.10;74.90
21108;DHT22;10712;52.944;9.098;2023-05-07T11:38:37;14.20;75.40
21108;DHT22;10712;52.944;9.098;2023-05-07T11:41:04;14.30;74.80
21108;DHT22;10712;52.944;9.098;2023-05-07T11:43:33;14.40;73.70
21108;DHT22;10712;52.944;9.098;2023-05-07T11:46:11;14.50;72.80
21108;DHT22;10712;52.944;9.098;2023-05-07T11:48:38;14.50;72.00
21108;DHT22;10712;52.944;9.098;2023-05-07T11:51:06;14.60;72.60
21108;DHT22;10712;52.944;9.098;2023-05-07T11:53:38;14.60;72.70
21108;DHT22;10712;52.944;9.098;2023-05-07T11:56:12;14.60;73.00
21108;DHT22;10712;52.944;9.098;2023-05-07T11:58:40;14.60;73.00
21108;DHT22;10712;52.944;9.098;2023-05-07T12:01:08;14.60;72.80
21108;DHT22;10712;52.944;9.098;2023-05-07T12:03:36;14.60;73.20
21108;DHT22;10712;52.944;9.098;2023-05-07T12:06:05;14.60;72.80
21108;DHT22;10712;52.944;9.098;2023-05-07T12:08:32;14.60;72.70
21108;DHT22;10712;52.944;9.098;2023-05-07T12:10:58;14.70;73.00
21108;DHT22;10712;52.944;9.098;2023-05-07T12:13:25;14.70;73.40
21108;DHT22;10712;52.944;9.098;2023-05-07T12:15:52;14.80;73.10
21108;DHT22;10712;52.944;9.098;2023-05-07T12:18:19;14.80;73.20
21108;DHT22;10712;52.944;9.098;2023-05-07T12:20:46;14.90;72.80
21108;DHT22;10712;52.944;9.098;2023-05-07T12:23:12;14.80;71.30
21108;DHT22;10712;52.944;9.098;2023-05-07T12:25:41;14.80;71.30
21108;DHT22;10712;52.944;9.098;2023-05-07T12:28:15;14.80;71.20
21108;DHT22;10712;52.944;9.098;2023-05-07T12:30:43;14.80;71.80
21108;DHT22;10712;52.944;9.098;2023-05-07T12:33:10;14.80;71.70
21108;DHT22;10712;52.944;9.098;2023-05-07T12:35:41;14.80;72.20
21108;DHT22;10712;52.944;9.098;2023-05-07T12:38:15;14.90;71.90
21108;DHT22;10712;52.944;9.098;2023-05-07T12:40:47;15.00;69.70
21108;DHT22;10712;52.944;9.098;2023-05-07T12:43:20;15.00;70.50
21108;DHT22;10712;52.944;9.098;2023-05-07T12:45:48;15.00;71.60
21108;DHT22;10712;52.944;9.098;2023-05-07T12:48:16;15.10;71.30
21108;DHT22;10712;52.944;9.098;2023-05-07T12:50:42;15.10;70.30
21108;DHT22;10712;52.944;9.098;2023-05-07T12:53:10;15.20;69.60
21108;DHT22;10712;52.944;9.098;2023-05-07T12:55:42;15.20;70.40
21108;DHT22;10712;52.944;9.098;2023-05-07T13:00:55;15.30;71.20
21108;DHT22;10712;52.944;9.098;2023-05-07T13:03:29;15.30;71.30
21108;DHT22;10712;52.944;9.098;2023-05-07T13:06:06;15.40;70.90
21108;DHT22;10712;52.944;9.098;2023-05-07T13:08:37;15.40;71.40
21108;DHT22;10712;52.944;9.098;2023-05-07T13:11:11;15.40;71.60
21108;DHT22;10712;52.944;9.098;2023-05-07T13:13:39;15.50;71.20
21108;DHT22;10712;52.944;9.098;2023-05-07T13:16:08;15.50;71.30
21108;DHT22;10712;52.944;9.098;2023-05-07T13:18:35;15.60;71.40
21108;DHT22;10712;52.944;9.098;2023-05-07T13:21:01;15.60;71.50
21108;DHT22;10712;52.944;9.098;2023-05-07T13:23:28;15.70;70.70
21108;DHT22;10712;52.944;9.098;2023-05-07T13:25:54;15.70;70.70
21108;DHT22;10712;52.944;9.098;2023-05-07T13:28:21;15.70;70.30
21108;DHT22;10712;52.944;9.098;2023-05-07T13:30:48;15.80;69.80
21108;DHT22;10712;52.944;9.098;2023-05-07T13:33:14;15.80;69.70
21108;DHT22;10712;52.944;9.098;2023-05-07T13:35:41;15.90;69.70
21108;DHT22;10712;52.944;9.098;2023-05-07T13:38:07;15.90;69.70
21108;DHT22;10712;52.944;9.098;2023-05-07T13:40:33;15.90;68.30
21108;DHT22;10712;52.944;9.098;2023-05-07T13:42:59;16.00;69.00
21108;DHT22;10712;52.944;9.098;2023-05-07T13:45:28;16.00;69.00
21108;DHT22;10712;52.944;9.098;2023-05-07T13:47:57;15.90;68.90
21108;DHT22;10712;52.944;9.098;2023-05-07T13:50:23;15.90;69.00
21108;DHT22;10712;52.944;9.098;2023-05-07T13:52:50;15.90;69.20
21108;DHT22;10712;52.944;9.098;2023-05-07T13:55:17;15.90;69.20
21108;DHT22;10712;52.944;9.098;2023-05-07T13:57:44;16.00;69.40
21108;DHT22;10712;52.944;9.098;2023-05-07T14:00:11;16.10;69.50
21108;DHT22;10712;52.944;9.098;2023-05-07T14:02:41;16.10;68.90
21108;DHT22;10712;52.944;9.098;2023-05-07T14:05:07;16.10;68.40
21108;DHT22;10712;52.944;9.098;2023-05-07T14:07:34;16.10;68.40
21108;DHT22;10712;52.944;9.098;2023-05-07T14:10:00;16.10;67.90
21108;DHT22;10712;52.944;9.098;2023-05-07T14:12:25;16.10;68.00
21108;DHT22;10712;52.944;9.098;2023-05-07T14:14:51;16.10;68.50
21108;DHT22;10712;52.944;9.098;2023-05-07T14:17:18;16.10;68.50
21108;DHT22;10712;52.944;9.098;2023-05-07T14:19:44;16.10;68.30
21108;DHT22;10712;52.944;9.098;2023-05-07T14:22:10;16.10;67.80
21108;DHT22;10712;52.944;9.098;2023-05-07T14:24:36;16.10;67.90
21108;DHT22;10712;52.944;9.098;2023-05-07T14:27:01;16.10;67.40
21108;DHT22;10712;52.944;9.098;2023-05-07T14:29:28;16.10;67.30
21108;DHT22;10712;52.944;9.098;2023-05-07T14:31:54;16.00;68.30
21108;DHT22;10712;52.944;9.098;2023-05-07T14:34:21;16.10;68.60
21108;DHT22;10712;52.944;9.098;2023-05-07T14:36:46;16.10;67.80
21108;DHT22;10712;52.944;9.098;2023-05-07T14:39:12;16.10;68.40
21108;DHT22;10712;52.944;9.098;2023-05-07T14:41:38;16.10;69.00
21108;DHT22;10712;52.944;9.098;2023-05-07T14:44:04;16.20;68.70
21108;DHT22;10712;52.944;9.098;2023-05-07T14:46:30;16.20;66.90
21108;DHT22;10712;52.944;9.098;2023-05-07T14:48:57;16.20;67.10
21108;DHT22;10712;52.944;9.098;2023-05-07T14:51:23;16.30;67.70
21108;DHT22;10712;52.944;9.098;2023-05-07T14:53:50;16.30;66.40
21108;DHT22;10712;52.944;9.098;2023-05-07T14:56:16;16.30;65.70
21108;DHT22;10712;52.944;9.098;2023-05-07T14:58:43;16.30;66.60
21108;DHT22;10712;52.944;9.098;2023-05-07T15:01:09;16.30;66.50
21108;DHT22;10712;52.944;9.098;2023-05-07T15:03:35;16.30;66.70
21108;DHT22;10712;52.944;9.098;2023-05-07T15:06:02;16.30;66.00
21108;DHT22;10712;52.944;9.098;2023-05-07T15:08:28;16.30;65.70
21108;DHT22;10712;52.944;9.098;2023-05-07T15:10:54;16.20;66.30
21108;DHT22;10712;52.944;9.098;2023-05-07T15:13:20;16.20;66.50
21108;DHT22;10712;52.944;9.098;2023-05-07T15:15:47;16.30;66.40
21108;DHT22;10712;52.944;9.098;2023-05-07T15:18:14;16.30;66.10
21108;DHT22;10712;52.944;9.098;2023-05-07T15:20:40;16.30;66.00
21108;DHT22;10712;52.944;9.098;2023-05-07T15:23:07;16.30;66.50
21108;DHT22;10712;52.944;9.098;2023-05-07T15:25:39;16.30;66.70
21108;DHT22;10712;52.944;9.098;2023-05-07T15:28:05;16.30;67.10
21108;DHT22;10712;52.944;9.098;2023-05-07T15:30:31;16.30;66.10
21108;DHT22;10712;52.944;9.098;2023-05-07T15:32:57;16.20;66.30
21108;DHT22;10712;52.944;9.098;2023-05-07T15:35:23;16.20;66.10
21108;DHT22;10712;52.944;9.098;2023-05-07T15:37:51;16.20;66.10
21108;DHT22;10712;52.944;9.098;2023-05-07T15:40:18;16.20;65.80
21108;DHT22;10712;52.944;9.098;2023-05-07T15:42:45;16.20;66.00
21108;DHT22;10712;52.944;9.098;2023-05-07T15:45:11;16.20;65.40
21108;DHT22;10712;52.944;9.098;2023-05-07T15:47:39;16.20;66.10
21108;DHT22;10712;52.944;9.098;2023-05-07T15:50:06;16.10;67.00
21108;DHT22;10712;52.944;9.098;2023-05-07T15:52:32;16.10;67.20
21108;DHT22;10712;52.944;9.098;2023-05-07T15:54:58;16.10;66.50